< < Back
Terminal Aerodrome Forecast


Current Version              Previous Versions:   1  2  3  4  5  6  7  8  9  

Terminal Aerodrome Forecast

993
FTUS42 KGSP 251720
TAFAVL
TAF
KAVL 251720Z 2518/2618 34008KT P6SM SCT030
      TEMPO 2520/2524 TS BKN030CB
     FM260900 VRB03KT 1 1/2SM BR FEW003 SCT030
     FM261100 VRB03KT 1/2SM FG BKN003
     FM261300 34006KT P6SM FEW030
     FM261600 36006KT P6SM SCT030=

Latest METAR

535
SAUS70 KWBC 251958
MTRAVL
METAR KAVL 251954Z 34008KT 10SM SCT070 31/16 A3020 RMK AO2 LTG DSNT SW
SLP196 T03110156


USA.gov is the U.S. government's official web portal to all federal, state and local government web resources and services.